KEGI/EGI METAR and TAF weather

Enter ICAO airport designator
Station Type Date Time Source
KEGI METAR 2018/07/21 11:43 UTC NOAA

KEGI 211143Z AUTO 23004KT 4SM BR OVC002 27/27 A2993 RMK AO2 SLP134 FZRANO $


Station Type Date Time Source
KEGI Decoded METAR 2018/07/21 11:43 UTC NOAA

Duke Field / Eglin Auxiliary, FL, United States (KEGI) 30-39N 086-31W
Jul 21, 2018 - 07:43 AM EDT / 2018.07.21 1143 UTC
Wind: from the SW (230 degrees) at 5 MPH (4 KT):0
Visibility: 4 mile(s):0
Sky conditions: overcast
Weather: mist
Temperature: 80 F (27 C)
Dew Point: 80 F (27 C)
Relative Humidity: 100%
Pressure (altimeter): 29.93 in. Hg (1013 hPa)
ob: KEGI 211143Z AUTO 23004KT 4SM BR OVC002 27/27 A2993 RMK AO2 SLP134 FZRANO
cycle: 11

Station Type Date Time Source
KEGI TAF 2018/07/21 01:35 UTC NOAA

TAF COR KEGI 210334Z 2101/2207 35006KT 9999 SCT035 BKN200 QNH2990INS
BECMG 2104/2105 28003KT 9999 FEW040 SCT200 QNH2991INS
BECMG 2112/2113 24010KT 9999 SCT040 BKN120 BKN200 QNH2990INS
BECMG 2118/2119 24010G15KT 9999 VCTS BKN030CB BKN120 BKN200 QNH2989INS
TEMPO 2119/2100 24015G25KT 4800 TSRA BKN025CB BKN100 BKN180
BECMG 2200/2201 21009KT 9999 NSW FEW040 SCT200 QNH2985INS TX33/2120Z TN21/2111Z LAST NO
AMDS AFT 2105 NEXT 2309


Example: see airport list